sensor_id;sensor_type;location;lat;lon;timestamp;P1;durP1;ratioP1;P2;durP2;ratioP2
19804;SDS011;10062;51.052;13.756;2023-05-21T00:02:19;32.07;;;19.53;;
19804;SDS011;10062;51.052;13.756;2023-05-21T00:04:51;29.40;;;18.90;;
19804;SDS011;10062;51.052;13.756;2023-05-21T00:07:22;28.57;;;18.90;;
19804;SDS011;10062;51.052;13.756;2023-05-21T00:09:54;31.23;;;20.60;;
19804;SDS011;10062;51.052;13.756;2023-05-21T00:12:26;27.43;;;18.30;;
19804;SDS011;10062;51.052;13.756;2023-05-21T00:14:57;29.63;;;18.93;;
19804;SDS011;10062;51.052;13.756;2023-05-21T00:17:31;30.27;;;20.83;;
19804;SDS011;10062;51.052;13.756;2023-05-21T00:20:06;28.63;;;19.40;;
19804;SDS011;10062;51.052;13.756;2023-05-21T00:22:39;36.43;;;20.00;;
19804;SDS011;10062;51.052;13.756;2023-05-21T00:25:11;31.87;;;19.67;;
19804;SDS011;10062;51.052;13.756;2023-05-21T00:27:42;29.20;;;20.17;;
19804;SDS011;10062;51.052;13.756;2023-05-21T00:30:14;31.07;;;20.03;;
19804;SDS011;10062;51.052;13.756;2023-05-21T00:32:47;32.73;;;20.80;;
19804;SDS011;10062;51.052;13.756;2023-05-21T00:35:19;32.63;;;20.80;;
19804;SDS011;10062;51.052;13.756;2023-05-21T00:37:51;31.47;;;20.77;;
19804;SDS011;10062;51.052;13.756;2023-05-21T00:40:23;28.60;;;18.93;;
19804;SDS011;10062;51.052;13.756;2023-05-21T00:42:55;32.20;;;20.40;;
19804;SDS011;10062;51.052;13.756;2023-05-21T00:45:27;30.17;;;19.13;;
19804;SDS011;10062;51.052;13.756;2023-05-21T00:48:00;28.63;;;19.47;;
19804;SDS011;10062;51.052;13.756;2023-05-21T00:50:33;30.60;;;20.33;;
19804;SDS011;10062;51.052;13.756;2023-05-21T00:53:10;33.63;;;20.13;;
19804;SDS011;10062;51.052;13.756;2023-05-21T00:55:41;35.67;;;21.67;;
19804;SDS011;10062;51.052;13.756;2023-05-21T00:58:13;32.67;;;20.53;;
19804;SDS011;10062;51.052;13.756;2023-05-21T01:00:46;32.27;;;21.73;;
19804;SDS011;10062;51.052;13.756;2023-05-21T01:03:19;32.80;;;21.90;;
19804;SDS011;10062;51.052;13.756;2023-05-21T01:05:52;31.80;;;20.33;;
19804;SDS011;10062;51.052;13.756;2023-05-21T01:08:28;30.60;;;19.90;;
19804;SDS011;10062;51.052;13.756;2023-05-21T01:11:00;31.47;;;20.30;;
19804;SDS011;10062;51.052;13.756;2023-05-21T01:13:33;32.57;;;21.37;;
19804;SDS011;10062;51.052;13.756;2023-05-21T01:16:08;30.23;;;19.70;;
19804;SDS011;10062;51.052;13.756;2023-05-21T01:18:43;30.90;;;21.33;;
19804;SDS011;10062;51.052;13.756;2023-05-21T01:21:15;30.13;;;20.10;;
19804;SDS011;10062;51.052;13.756;2023-05-21T01:23:50;32.83;;;20.13;;
19804;SDS011;10062;51.052;13.756;2023-05-21T01:26:22;30.97;;;19.83;;
19804;SDS011;10062;51.052;13.756;2023-05-21T01:28:55;30.47;;;20.27;;
19804;SDS011;10062;51.052;13.756;2023-05-21T01:31:28;34.77;;;21.63;;
19804;SDS011;10062;51.052;13.756;2023-05-21T01:34:04;32.07;;;21.60;;
19804;SDS011;10062;51.052;13.756;2023-05-21T01:36:39;32.00;;;20.90;;
19804;SDS011;10062;51.052;13.756;2023-05-21T01:39:16;29.97;;;19.90;;
19804;SDS011;10062;51.052;13.756;2023-05-21T01:41:53;31.67;;;20.33;;
19804;SDS011;10062;51.052;13.756;2023-05-21T01:44:26;32.73;;;20.50;;
19804;SDS011;10062;51.052;13.756;2023-05-21T01:46:58;31.03;;;21.43;;
19804;SDS011;10062;51.052;13.756;2023-05-21T01:49:30;29.33;;;20.23;;
19804;SDS011;10062;51.052;13.756;2023-05-21T01:52:03;30.80;;;20.80;;
19804;SDS011;10062;51.052;13.756;2023-05-21T01:54:36;32.13;;;19.70;;
19804;SDS011;10062;51.052;13.756;2023-05-21T01:57:08;29.33;;;19.37;;
19804;SDS011;10062;51.052;13.756;2023-05-21T01:59:40;34.93;;;20.77;;
19804;SDS011;10062;51.052;13.756;2023-05-21T02:02:13;35.03;;;21.87;;
19804;SDS011;10062;51.052;13.756;2023-05-21T02:04:45;32.60;;;20.50;;
19804;SDS011;10062;51.052;13.756;2023-05-21T02:07:17;35.63;;;21.27;;
19804;SDS011;10062;51.052;13.756;2023-05-21T02:09:50;30.00;;;20.57;;
19804;SDS011;10062;51.052;13.756;2023-05-21T02:12:21;29.00;;;20.20;;
19804;SDS011;10062;51.052;13.756;2023-05-21T02:14:53;33.23;;;20.53;;
19804;SDS011;10062;51.052;13.756;2023-05-21T02:17:25;33.70;;;20.83;;
19804;SDS011;10062;51.052;13.756;2023-05-21T02:20:00;32.70;;;21.40;;
19804;SDS011;10062;51.052;13.756;2023-05-21T02:22:40;35.97;;;20.90;;
19804;SDS011;10062;51.052;13.756;2023-05-21T02:25:15;31.77;;;21.30;;
19804;SDS011;10062;51.052;13.756;2023-05-21T02:27:48;32.87;;;20.87;;
19804;SDS011;10062;51.052;13.756;2023-05-21T02:30:22;34.90;;;21.50;;
19804;SDS011;10062;51.052;13.756;2023-05-21T02:32:54;31.60;;;19.87;;
19804;SDS011;10062;51.052;13.756;2023-05-21T02:35:27;32.87;;;20.93;;
19804;SDS011;10062;51.052;13.756;2023-05-21T02:37:59;29.90;;;20.10;;
19804;SDS011;10062;51.052;13.756;2023-05-21T02:40:33;33.97;;;19.77;;
19804;SDS011;10062;51.052;13.756;2023-05-21T02:43:05;35.60;;;21.43;;
19804;SDS011;10062;51.052;13.756;2023-05-21T02:45:37;33.67;;;19.97;;
19804;SDS011;10062;51.052;13.756;2023-05-21T02:48:09;32.33;;;20.37;;
19804;SDS011;10062;51.052;13.756;2023-05-21T02:50:44;34.20;;;21.83;;
19804;SDS011;10062;51.052;13.756;2023-05-21T02:53:16;30.93;;;20.97;;
19804;SDS011;10062;51.052;13.756;2023-05-21T02:55:49;31.40;;;20.33;;
19804;SDS011;10062;51.052;13.756;2023-05-21T02:58:21;33.83;;;21.90;;
19804;SDS011;10062;51.052;13.756;2023-05-21T03:00:54;32.90;;;21.13;;
19804;SDS011;10062;51.052;13.756;2023-05-21T03:03:25;36.03;;;20.77;;
19804;SDS011;10062;51.052;13.756;2023-05-21T03:05:57;31.20;;;20.57;;
19804;SDS011;10062;51.052;13.756;2023-05-21T03:08:29;31.13;;;20.13;;
19804;SDS011;10062;51.052;13.756;2023-05-21T03:11:02;32.27;;;20.93;;
19804;SDS011;10062;51.052;13.756;2023-05-21T03:13:34;30.33;;;20.20;;
19804;SDS011;10062;51.052;13.756;2023-05-21T03:16:06;34.80;;;22.23;;
19804;SDS011;10062;51.052;13.756;2023-05-21T03:18:37;33.37;;;21.80;;
19804;SDS011;10062;51.052;13.756;2023-05-21T03:21:09;35.43;;;21.10;;
19804;SDS011;10062;51.052;13.756;2023-05-21T03:23:42;35.00;;;21.23;;
19804;SDS011;10062;51.052;13.756;2023-05-21T03:26:15;33.53;;;21.90;;
19804;SDS011;10062;51.052;13.756;2023-05-21T03:28:47;31.43;;;20.57;;
19804;SDS011;10062;51.052;13.756;2023-05-21T03:31:19;36.80;;;21.83;;
19804;SDS011;10062;51.052;13.756;2023-05-21T03:33:57;31.90;;;20.73;;
19804;SDS011;10062;51.052;13.756;2023-05-21T03:36:33;36.53;;;22.87;;
19804;SDS011;10062;51.052;13.756;2023-05-21T03:39:06;33.30;;;21.10;;
19804;SDS011;10062;51.052;13.756;2023-05-21T03:41:39;32.23;;;20.47;;
19804;SDS011;10062;51.052;13.756;2023-05-21T03:44:14;35.80;;;22.87;;
19804;SDS011;10062;51.052;13.756;2023-05-21T03:47:00;34.83;;;21.70;;
19804;SDS011;10062;51.052;13.756;2023-05-21T03:49:38;33.80;;;22.60;;
19804;SDS011;10062;51.052;13.756;2023-05-21T03:52:10;31.97;;;19.20;;
19804;SDS011;10062;51.052;13.756;2023-05-21T03:54:42;30.73;;;20.87;;
19804;SDS011;10062;51.052;13.756;2023-05-21T03:57:15;38.90;;;21.83;;
19804;SDS011;10062;51.052;13.756;2023-05-21T03:59:49;31.80;;;21.17;;
19804;SDS011;10062;51.052;13.756;2023-05-21T04:02:21;34.40;;;21.53;;
19804;SDS011;10062;51.052;13.756;2023-05-21T04:04:53;35.70;;;21.93;;
19804;SDS011;10062;51.052;13.756;2023-05-21T04:07:26;30.50;;;20.30;;
19804;SDS011;10062;51.052;13.756;2023-05-21T04:09:58;33.90;;;21.83;;
19804;SDS011;10062;51.052;13.756;2023-05-21T04:12:32;34.17;;;21.13;;
19804;SDS011;10062;51.052;13.756;2023-05-21T04:15:04;32.87;;;22.37;;
19804;SDS011;10062;51.052;13.756;2023-05-21T04:17:38;36.60;;;22.60;;
19804;SDS011;10062;51.052;13.756;2023-05-21T04:20:11;35.83;;;21.90;;
19804;SDS011;10062;51.052;13.756;2023-05-21T04:22:45;41.13;;;23.03;;
19804;SDS011;10062;51.052;13.756;2023-05-21T04:25:17;34.90;;;21.73;;
19804;SDS011;10062;51.052;13.756;2023-05-21T04:27:51;33.53;;;20.53;;
19804;SDS011;10062;51.052;13.756;2023-05-21T04:30:23;32.53;;;21.63;;
19804;SDS011;10062;51.052;13.756;2023-05-21T04:32:56;31.47;;;20.70;;
19804;SDS011;10062;51.052;13.756;2023-05-21T04:35:29;36.13;;;21.80;;
19804;SDS011;10062;51.052;13.756;2023-05-21T04:38:01;32.87;;;20.07;;
19804;SDS011;10062;51.052;13.756;2023-05-21T04:40:35;34.70;;;21.43;;
19804;SDS011;10062;51.052;13.756;2023-05-21T04:43:08;31.33;;;19.57;;
19804;SDS011;10062;51.052;13.756;2023-05-21T04:45:40;33.13;;;21.37;;
19804;SDS011;10062;51.052;13.756;2023-05-21T04:48:12;33.17;;;21.30;;
19804;SDS011;10062;51.052;13.756;2023-05-21T04:50:44;34.63;;;21.53;;
19804;SDS011;10062;51.052;13.756;2023-05-21T04:53:16;30.10;;;20.77;;
19804;SDS011;10062;51.052;13.756;2023-05-21T04:55:48;46.87;;;28.40;;
19804;SDS011;10062;51.052;13.756;2023-05-21T04:58:21;39.73;;;25.87;;
19804;SDS011;10062;51.052;13.756;2023-05-21T05:00:53;41.20;;;24.60;;
19804;SDS011;10062;51.052;13.756;2023-05-21T05:03:26;31.17;;;21.23;;
19804;SDS011;10062;51.052;13.756;2023-05-21T05:05:58;31.93;;;20.13;;
19804;SDS011;10062;51.052;13.756;2023-05-21T05:08:34;32.50;;;20.27;;
19804;SDS011;10062;51.052;13.756;2023-05-21T05:11:07;28.17;;;19.33;;
19804;SDS011;10062;51.052;13.756;2023-05-21T05:13:40;31.30;;;20.27;;
19804;SDS011;10062;51.052;13.756;2023-05-21T05:16:12;32.07;;;20.13;;
19804;SDS011;10062;51.052;13.756;2023-05-21T05:18:53;30.70;;;19.93;;
19804;SDS011;10062;51.052;13.756;2023-05-21T05:21:25;29.50;;;19.67;;
19804;SDS011;10062;51.052;13.756;2023-05-21T05:23:57;29.30;;;19.17;;
19804;SDS011;10062;51.052;13.756;2023-05-21T05:26:31;32.37;;;22.13;;
19804;SDS011;10062;51.052;13.756;2023-05-21T05:29:05;26.63;;;19.50;;
19804;SDS011;10062;51.052;13.756;2023-05-21T05:31:36;28.77;;;19.83;;
19804;SDS011;10062;51.052;13.756;2023-05-21T05:34:08;29.50;;;20.07;;
19804;SDS011;10062;51.052;13.756;2023-05-21T05:36:40;26.13;;;17.87;;
19804;SDS011;10062;51.052;13.756;2023-05-21T05:39:11;30.70;;;20.37;;
19804;SDS011;10062;51.052;13.756;2023-05-21T05:41:43;29.20;;;20.40;;
19804;SDS011;10062;51.052;13.756;2023-05-21T05:44:16;27.87;;;19.43;;
19804;SDS011;10062;51.052;13.756;2023-05-21T05:46:48;26.73;;;17.87;;
19804;SDS011;10062;51.052;13.756;2023-05-21T05:49:20;25.03;;;17.90;;
19804;SDS011;10062;51.052;13.756;2023-05-21T05:51:51;27.13;;;19.17;;
19804;SDS011;10062;51.052;13.756;2023-05-21T05:54:23;24.57;;;17.23;;
19804;SDS011;10062;51.052;13.756;2023-05-21T05:56:55;24.87;;;18.10;;
19804;SDS011;10062;51.052;13.756;2023-05-21T05:59:29;24.90;;;17.30;;
19804;SDS011;10062;51.052;13.756;2023-05-21T06:02:03;28.83;;;17.53;;
19804;SDS011;10062;51.052;13.756;2023-05-21T06:04:35;25.03;;;18.07;;
19804;SDS011;10062;51.052;13.756;2023-05-21T06:07:07;29.73;;;17.83;;
19804;SDS011;10062;51.052;13.756;2023-05-21T06:09:39;23.30;;;16.97;;
19804;SDS011;10062;51.052;13.756;2023-05-21T06:12:10;23.17;;;16.67;;
19804;SDS011;10062;51.052;13.756;2023-05-21T06:14:46;23.93;;;17.47;;
19804;SDS011;10062;51.052;13.756;2023-05-21T06:17:18;22.73;;;16.67;;
19804;SDS011;10062;51.052;13.756;2023-05-21T06:19:51;22.73;;;16.80;;
19804;SDS011;10062;51.052;13.756;2023-05-21T06:22:23;25.10;;;17.77;;
19804;SDS011;10062;51.052;13.756;2023-05-21T06:24:55;24.50;;;16.10;;
19804;SDS011;10062;51.052;13.756;2023-05-21T06:27:26;23.90;;;15.47;;
19804;SDS011;10062;51.052;13.756;2023-05-21T06:30:00;22.97;;;17.00;;
19804;SDS011;10062;51.052;13.756;2023-05-21T06:32:33;25.20;;;18.43;;
19804;SDS011;10062;51.052;13.756;2023-05-21T06:35:05;22.60;;;16.10;;
19804;SDS011;10062;51.052;13.756;2023-05-21T06:37:37;22.57;;;16.70;;
19804;SDS011;10062;51.052;13.756;2023-05-21T06:40:09;26.63;;;16.57;;
19804;SDS011;10062;51.052;13.756;2023-05-21T06:42:43;22.60;;;16.40;;
19804;SDS011;10062;51.052;13.756;2023-05-21T06:45:41;22.53;;;16.03;;
19804;SDS011;10062;51.052;13.756;2023-05-21T06:48:27;21.63;;;14.53;;
19804;SDS011;10062;51.052;13.756;2023-05-21T06:50:59;25.00;;;15.30;;
19804;SDS011;10062;51.052;13.756;2023-05-21T06:53:30;19.83;;;14.70;;
19804;SDS011;10062;51.052;13.756;2023-05-21T06:56:02;21.30;;;16.43;;
19804;SDS011;10062;51.052;13.756;2023-05-21T06:58:46;23.10;;;16.20;;
19804;SDS011;10062;51.052;13.756;2023-05-21T07:01:21;20.07;;;14.80;;
19804;SDS011;10062;51.052;13.756;2023-05-21T07:03:54;20.57;;;15.37;;
19804;SDS011;10062;51.052;13.756;2023-05-21T07:06:26;26.50;;;19.87;;
19804;SDS011;10062;51.052;13.756;2023-05-21T07:08:57;22.27;;;15.53;;
19804;SDS011;10062;51.052;13.756;2023-05-21T07:11:30;21.13;;;15.00;;
19804;SDS011;10062;51.052;13.756;2023-05-21T07:14:03;22.50;;;14.20;;
19804;SDS011;10062;51.052;13.756;2023-05-21T07:16:38;18.93;;;14.23;;
19804;SDS011;10062;51.052;13.756;2023-05-21T07:19:10;22.13;;;16.13;;
19804;SDS011;10062;51.052;13.756;2023-05-21T07:21:43;26.50;;;19.20;;
19804;SDS011;10062;51.052;13.756;2023-05-21T07:24:14;24.57;;;15.73;;
19804;SDS011;10062;51.052;13.756;2023-05-21T07:26:46;21.00;;;15.13;;
19804;SDS011;10062;51.052;13.756;2023-05-21T07:29:18;21.33;;;14.57;;
19804;SDS011;10062;51.052;13.756;2023-05-21T07:31:51;21.63;;;15.37;;
19804;SDS011;10062;51.052;13.756;2023-05-21T07:34:24;21.60;;;14.83;;
19804;SDS011;10062;51.052;13.756;2023-05-21T07:36:56;22.33;;;14.80;;
19804;SDS011;10062;51.052;13.756;2023-05-21T07:39:28;19.77;;;14.67;;
19804;SDS011;10062;51.052;13.756;2023-05-21T07:41:59;22.23;;;15.07;;
19804;SDS011;10062;51.052;13.756;2023-05-21T07:44:31;24.90;;;15.40;;
19804;SDS011;10062;51.052;13.756;2023-05-21T07:47:04;26.20;;;15.60;;
19804;SDS011;10062;51.052;13.756;2023-05-21T07:49:37;24.23;;;17.20;;
19804;SDS011;10062;51.052;13.756;2023-05-21T07:52:08;19.30;;;16.00;;
19804;SDS011;10062;51.052;13.756;2023-05-21T07:54:40;22.37;;;15.60;;
19804;SDS011;10062;51.052;13.756;2023-05-21T07:57:12;18.07;;;13.80;;
19804;SDS011;10062;51.052;13.756;2023-05-21T07:59:54;19.87;;;14.60;;
19804;SDS011;10062;51.052;13.756;2023-05-21T08:02:28;19.27;;;14.63;;
19804;SDS011;10062;51.052;13.756;2023-05-21T08:04:59;20.17;;;14.83;;
19804;SDS011;10062;51.052;13.756;2023-05-21T08:07:31;20.25;;;13.93;;
19804;SDS011;10062;51.052;13.756;2023-05-21T08:10:03;17.60;;;13.73;;
19804;SDS011;10062;51.052;13.756;2023-05-21T08:12:36;17.67;;;13.82;;
19804;SDS011;10062;51.052;13.756;2023-05-21T08:15:09;16.13;;;13.10;;
19804;SDS011;10062;51.052;13.756;2023-05-21T08:17:48;16.35;;;13.73;;
19804;SDS011;10062;51.052;13.756;2023-05-21T08:20:20;20.17;;;14.25;;
19804;SDS011;10062;51.052;13.756;2023-05-21T08:22:53;18.60;;;14.10;;
19804;SDS011;10062;51.052;13.756;2023-05-21T08:25:26;16.80;;;13.15;;
19804;SDS011;10062;51.052;13.756;2023-05-21T08:27:58;18.65;;;14.18;;
19804;SDS011;10062;51.052;13.756;2023-05-21T08:30:30;17.23;;;13.95;;
19804;SDS011;10062;51.052;13.756;2023-05-21T08:33:04;17.27;;;12.80;;
19804;SDS011;10062;51.052;13.756;2023-05-21T08:35:37;18.00;;;13.65;;
19804;SDS011;10062;51.052;13.756;2023-05-21T08:38:18;18.98;;;13.05;;
19804;SDS011;10062;51.052;13.756;2023-05-21T08:41:06;18.30;;;14.60;;
19804;SDS011;10062;51.052;13.756;2023-05-21T08:43:39;17.90;;;14.38;;
19804;SDS011;10062;51.052;13.756;2023-05-21T08:46:11;17.08;;;13.15;;
19804;SDS011;10062;51.052;13.756;2023-05-21T08:48:45;15.88;;;13.40;;
19804;SDS011;10062;51.052;13.756;2023-05-21T08:51:17;17.63;;;13.43;;
19804;SDS011;10062;51.052;13.756;2023-05-21T08:53:52;17.90;;;12.88;;
19804;SDS011;10062;51.052;13.756;2023-05-21T08:56:24;16.70;;;13.02;;
19804;SDS011;10062;51.052;13.756;2023-05-21T08:59:00;18.52;;;12.73;;
19804;SDS011;10062;51.052;13.756;2023-05-21T09:01:37;20.88;;;13.57;;
19804;SDS011;10062;51.052;13.756;2023-05-21T09:04:22;15.00;;;11.52;;
19804;SDS011;10062;51.052;13.756;2023-05-21T09:06:57;20.90;;;13.57;;
19804;SDS011;10062;51.052;13.756;2023-05-21T09:10:00;16.25;;;11.35;;
19804;SDS011;10062;51.052;13.756;2023-05-21T09:12:34;16.05;;;12.25;;
19804;SDS011;10062;51.052;13.756;2023-05-21T09:15:07;17.02;;;13.02;;
19804;SDS011;10062;51.052;13.756;2023-05-21T09:17:42;17.45;;;12.93;;
19804;SDS011;10062;51.052;13.756;2023-05-21T09:20:41;17.58;;;12.50;;
19804;SDS011;10062;51.052;13.756;2023-05-21T09:23:15;14.65;;;11.77;;
19804;SDS011;10062;51.052;13.756;2023-05-21T09:25:49;18.40;;;13.27;;
19804;SDS011;10062;51.052;13.756;2023-05-21T09:28:28;14.45;;;12.32;;
19804;SDS011;10062;51.052;13.756;2023-05-21T09:31:01;13.88;;;12.43;;
19804;SDS011;10062;51.052;13.756;2023-05-21T09:33:33;17.02;;;11.50;;
19804;SDS011;10062;51.052;13.756;2023-05-21T09:36:07;15.90;;;12.10;;
19804;SDS011;10062;51.052;13.756;2023-05-21T09:38:39;14.57;;;12.43;;
19804;SDS011;10062;51.052;13.756;2023-05-21T09:41:10;17.02;;;12.40;;
19804;SDS011;10062;51.052;13.756;2023-05-21T09:43:42;16.88;;;12.48;;
19804;SDS011;10062;51.052;13.756;2023-05-21T09:46:15;14.25;;;12.80;;
19804;SDS011;10062;51.052;13.756;2023-05-21T09:48:51;14.63;;;12.05;;
19804;SDS011;10062;51.052;13.756;2023-05-21T09:51:25;14.25;;;11.82;;
19804;SDS011;10062;51.052;13.756;2023-05-21T09:53:57;14.13;;;12.52;;
19804;SDS011;10062;51.052;13.756;2023-05-21T09:56:28;13.55;;;12.05;;
19804;SDS011;10062;51.052;13.756;2023-05-21T09:59:01;12.48;;;10.43;;
19804;SDS011;10062;51.052;13.756;2023-05-21T10:01:34;14.38;;;11.55;;
19804;SDS011;10062;51.052;13.756;2023-05-21T10:04:06;14.88;;;12.57;;
19804;SDS011;10062;51.052;13.756;2023-05-21T10:06:41;15.00;;;11.68;;
19804;SDS011;10062;51.052;13.756;2023-05-21T10:09:13;12.60;;;10.55;;
19804;SDS011;10062;51.052;13.756;2023-05-21T10:11:46;13.15;;;11.68;;
19804;SDS011;10062;51.052;13.756;2023-05-21T10:14:19;16.05;;;11.68;;
19804;SDS011;10062;51.052;13.756;2023-05-21T10:16:53;12.88;;;11.60;;
19804;SDS011;10062;51.052;13.756;2023-05-21T10:19:25;12.20;;;10.15;;
19804;SDS011;10062;51.052;13.756;2023-05-21T10:22:02;12.80;;;10.77;;
19804;SDS011;10062;51.052;13.756;2023-05-21T10:24:35;12.38;;;10.95;;
19804;SDS011;10062;51.052;13.756;2023-05-21T10:27:07;12.10;;;10.73;;
19804;SDS011;10062;51.052;13.756;2023-05-21T10:29:40;14.93;;;11.38;;
19804;SDS011;10062;51.052;13.756;2023-05-21T10:32:15;12.35;;;11.00;;
19804;SDS011;10062;51.052;13.756;2023-05-21T10:34:46;14.65;;;11.10;;
19804;SDS011;10062;51.052;13.756;2023-05-21T10:37:20;14.98;;;11.25;;
19804;SDS011;10062;51.052;13.756;2023-05-21T10:39:54;14.07;;;11.25;;
19804;SDS011;10062;51.052;13.756;2023-05-21T10:42:39;14.45;;;13.05;;
19804;SDS011;10062;51.052;13.756;2023-05-21T10:45:21;16.77;;;13.57;;
19804;SDS011;10062;51.052;13.756;2023-05-21T10:48:04;13.65;;;11.90;;
19804;SDS011;10062;51.052;13.756;2023-05-21T10:54:01;14.43;;;10.82;;
19804;SDS011;10062;51.052;13.756;2023-05-21T10:56:43;12.40;;;10.80;;
19804;SDS011;10062;51.052;13.756;2023-05-21T10:59:24;13.73;;;11.48;;
19804;SDS011;10062;51.052;13.756;2023-05-21T11:02:10;13.23;;;10.43;;
19804;SDS011;10062;51.052;13.756;2023-05-21T11:04:43;9.23;;;8.23;;
19804;SDS011;10062;51.052;13.756;2023-05-21T11:07:21;23.13;;;19.95;;
19804;SDS011;10062;51.052;13.756;2023-05-21T11:09:55;11.82;;;9.10;;
19804;SDS011;10062;51.052;13.756;2023-05-21T11:13:06;10.48;;;8.80;;
19804;SDS011;10062;51.052;13.756;2023-05-21T11:18:56;8.35;;;6.93;;
19804;SDS011;10062;51.052;13.756;2023-05-21T11:21:34;9.18;;;7.35;;
19804;SDS011;10062;51.052;13.756;2023-05-21T11:24:06;10.02;;;7.60;;
19804;SDS011;10062;51.052;13.756;2023-05-21T11:27:00;8.70;;;7.18;;
19804;SDS011;10062;51.052;13.756;2023-05-21T11:29:38;8.90;;;7.72;;
19804;SDS011;10062;51.052;13.756;2023-05-21T11:32:11;15.07;;;7.00;;
19804;SDS011;10062;51.052;13.756;2023-05-21T11:34:46;8.05;;;6.78;;
19804;SDS011;10062;51.052;13.756;2023-05-21T11:37:22;8.40;;;7.18;;
19804;SDS011;10062;51.052;13.756;2023-05-21T11:39:57;9.10;;;7.25;;
19804;SDS011;10062;51.052;13.756;2023-05-21T11:42:48;9.50;;;7.90;;
19804;SDS011;10062;51.052;13.756;2023-05-21T11:45:22;13.77;;;8.85;;
19804;SDS011;10062;51.052;13.756;2023-05-21T11:47:57;10.00;;;8.90;;
19804;SDS011;10062;51.052;13.756;2023-05-21T11:50:30;9.82;;;7.57;;
19804;SDS011;10062;51.052;13.756;2023-05-21T11:53:03;12.85;;;9.60;;
19804;SDS011;10062;51.052;13.756;2023-05-21T11:55:36;9.60;;;7.30;;
19804;SDS011;10062;51.052;13.756;2023-05-21T11:58:13;9.50;;;7.70;;
19804;SDS011;10062;51.052;13.756;2023-05-21T12:00:49;11.18;;;7.93;;
19804;SDS011;10062;51.052;13.756;2023-05-21T12:03:21;12.63;;;8.60;;
19804;SDS011;10062;51.052;13.756;2023-05-21T12:06:03;15.48;;;9.13;;
19804;SDS011;10062;51.052;13.756;2023-05-21T12:08:35;10.43;;;8.85;;
19804;SDS011;10062;51.052;13.756;2023-05-21T12:11:07;11.77;;;9.65;;
19804;SDS011;10062;51.052;13.756;2023-05-21T12:13:40;10.65;;;9.55;;
19804;SDS011;10062;51.052;13.756;2023-05-21T12:16:12;12.13;;;10.48;;
19804;SDS011;10062;51.052;13.756;2023-05-21T12:18:45;14.90;;;11.15;;
19804;SDS011;10062;51.052;13.756;2023-05-21T12:21:16;12.35;;;10.68;;
19804;SDS011;10062;51.052;13.756;2023-05-21T12:23:48;13.52;;;10.43;;
19804;SDS011;10062;51.052;13.756;2023-05-21T12:26:20;13.07;;;10.38;;
19804;SDS011;10062;51.052;13.756;2023-05-21T12:28:55;12.88;;;10.68;;
19804;SDS011;10062;51.052;13.756;2023-05-21T12:31:28;16.13;;;12.38;;
19804;SDS011;10062;51.052;13.756;2023-05-21T12:34:01;15.48;;;11.15;;
19804;SDS011;10062;51.052;13.756;2023-05-21T12:36:33;18.95;;;9.60;;
19804;SDS011;10062;51.052;13.756;2023-05-21T12:39:07;14.93;;;10.15;;
19804;SDS011;10062;51.052;13.756;2023-05-21T12:41:39;12.52;;;10.63;;
19804;SDS011;10062;51.052;13.756;2023-05-21T12:44:12;12.93;;;11.50;;
19804;SDS011;10062;51.052;13.756;2023-05-21T12:46:43;13.27;;;10.43;;
19804;SDS011;10062;51.052;13.756;2023-05-21T12:49:29;14.10;;;9.88;;
19804;SDS011;10062;51.052;13.756;2023-05-21T12:52:01;11.98;;;10.20;;
19804;SDS011;10062;51.052;13.756;2023-05-21T12:54:39;12.50;;;11.02;;
19804;SDS011;10062;51.052;13.756;2023-05-21T12:57:13;13.05;;;11.13;;
19804;SDS011;10062;51.052;13.756;2023-05-21T12:59:49;13.48;;;10.43;;
19804;SDS011;10062;51.052;13.756;2023-05-21T13:02:22;13.80;;;9.63;;
19804;SDS011;10062;51.052;13.756;2023-05-21T13:04:55;13.68;;;11.20;;
19804;SDS011;10062;51.052;13.756;2023-05-21T13:07:28;15.75;;;11.52;;
19804;SDS011;10062;51.052;13.756;2023-05-21T13:10:01;13.52;;;11.30;;
19804;SDS011;10062;51.052;13.756;2023-05-21T13:12:33;14.02;;;11.85;;
19804;SDS011;10062;51.052;13.756;2023-05-21T13:15:07;14.40;;;11.63;;
19804;SDS011;10062;51.052;13.756;2023-05-21T13:17:39;14.32;;;11.32;;
19804;SDS011;10062;51.052;13.756;2023-05-21T13:20:12;14.25;;;11.38;;
19804;SDS011;10062;51.052;13.756;2023-05-21T13:22:45;16.38;;;11.80;;
19804;SDS011;10062;51.052;13.756;2023-05-21T13:25:18;15.55;;;12.15;;
19804;SDS011;10062;51.052;13.756;2023-05-21T13:27:51;14.02;;;12.55;;
19804;SDS011;10062;51.052;13.756;2023-05-21T13:30:24;14.75;;;10.73;;
19804;SDS011;10062;51.052;13.756;2023-05-21T13:32:56;12.63;;;11.23;;
19804;SDS011;10062;51.052;13.756;2023-05-21T13:35:27;16.63;;;12.20;;
19804;SDS011;10062;51.052;13.756;2023-05-21T13:38:01;14.88;;;13.30;;
19804;SDS011;10062;51.052;13.756;2023-05-21T13:40:32;16.55;;;11.73;;
19804;SDS011;10062;51.052;13.756;2023-05-21T13:43:04;14.88;;;11.88;;
19804;SDS011;10062;51.052;13.756;2023-05-21T13:45:37;12.00;;;9.85;;
19804;SDS011;10062;51.052;13.756;2023-05-21T13:48:09;15.48;;;12.00;;
19804;SDS011;10062;51.052;13.756;2023-05-21T13:50:40;13.32;;;11.27;;
19804;SDS011;10062;51.052;13.756;2023-05-21T13:53:12;17.02;;;12.10;;
19804;SDS011;10062;51.052;13.756;2023-05-21T13:55:44;13.98;;;11.05;;
19804;SDS011;10062;51.052;13.756;2023-05-21T13:58:16;13.07;;;9.55;;
19804;SDS011;10062;51.052;13.756;2023-05-21T14:00:49;12.05;;;8.45;;
19804;SDS011;10062;51.052;13.756;2023-05-21T14:03:20;10.10;;;7.93;;
19804;SDS011;10062;51.052;13.756;2023-05-21T14:05:52;15.57;;;10.40;;
19804;SDS011;10062;51.052;13.756;2023-05-21T14:08:24;12.93;;;7.63;;
19804;SDS011;10062;51.052;13.756;2023-05-21T14:10:57;13.05;;;8.35;;
19804;SDS011;10062;51.052;13.756;2023-05-21T14:13:29;12.70;;;9.50;;
19804;SDS011;10062;51.052;13.756;2023-05-21T14:16:02;14.10;;;10.57;;
19804;SDS011;10062;51.052;13.756;2023-05-21T14:18:34;9.77;;;7.93;;
19804;SDS011;10062;51.052;13.756;2023-05-21T14:21:06;11.10;;;8.15;;
19804;SDS011;10062;51.052;13.756;2023-05-21T14:23:38;11.23;;;8.38;;
19804;SDS011;10062;51.052;13.756;2023-05-21T14:26:09;10.77;;;8.63;;
19804;SDS011;10062;51.052;13.756;2023-05-21T14:28:41;13.70;;;9.65;;
19804;SDS011;10062;51.052;13.756;2023-05-21T14:31:15;12.88;;;9.90;;
19804;SDS011;10062;51.052;13.756;2023-05-21T14:33:47;9.57;;;8.02;;
19804;SDS011;10062;51.052;13.756;2023-05-21T14:36:19;11.98;;;8.65;;
19804;SDS011;10062;51.052;13.756;2023-05-21T14:38:51;9.85;;;7.60;;
19804;SDS011;10062;51.052;13.756;2023-05-21T14:41:22;14.57;;;8.40;;
19804;SDS011;10062;51.052;13.756;2023-05-21T14:43:55;8.77;;;6.68;;
19804;SDS011;10062;51.052;13.756;2023-05-21T14:46:28;9.35;;;6.45;;
19804;SDS011;10062;51.052;13.756;2023-05-21T14:49:00;12.15;;;7.47;;
19804;SDS011;10062;51.052;13.756;2023-05-21T14:51:32;10.77;;;7.20;;
19804;SDS011;10062;51.052;13.756;2023-05-21T14:54:04;12.18;;;7.18;;
19804;SDS011;10062;51.052;13.756;2023-05-21T14:56:36;9.63;;;6.45;;